createdAt,value
2022-08-25T00:02:26.742Z,19.92
2022-08-25T00:05:32.233Z,19.84
2022-08-25T00:08:40.030Z,19.77
2022-08-25T00:11:45.294Z,19.63
2022-08-25T00:14:48.967Z,19.53
2022-08-25T00:17:52.783Z,19.49
2022-08-25T00:20:56.405Z,19.50
2022-08-25T00:24:03.407Z,19.48
2022-08-25T00:27:07.554Z,19.44
2022-08-25T00:30:15.873Z,19.42
2022-08-25T00:33:20.874Z,19.36
2022-08-25T00:36:24.482Z,19.29
2022-08-25T00:39:29.646Z,19.25
2022-08-25T00:42:33.380Z,19.20
2022-08-25T00:45:37.611Z,19.18
2022-08-25T00:48:44.689Z,19.14
2022-08-25T00:51:53.558Z,19.11
2022-08-25T00:55:08.005Z,19.06
2022-08-25T00:58:21.851Z,19.01
2022-08-25T01:01:25.827Z,18.98
2022-08-25T01:04:29.666Z,18.95
2022-08-25T01:07:33.593Z,18.92
2022-08-25T01:10:43.024Z,18.90
2022-08-25T01:13:56.981Z,18.84
2022-08-25T01:17:01.169Z,18.78
2022-08-25T01:20:29.181Z,18.72
2022-08-25T01:23:34.709Z,18.67
2022-08-25T01:26:38.409Z,18.65
2022-08-25T01:29:42.588Z,18.62
2022-08-25T01:32:46.950Z,18.59
2022-08-25T01:36:29.343Z,18.58
2022-08-25T01:39:37.043Z,18.58
2022-08-25T01:43:13.189Z,18.57
2022-08-25T01:51:07.453Z,18.57
2022-08-25T01:54:11.606Z,18.55
2022-08-25T01:57:17.950Z,18.53
2022-08-25T02:00:24.213Z,18.53
2022-08-25T02:03:29.947Z,18.51
2022-08-25T02:06:36.602Z,18.50
2022-08-25T02:09:41.251Z,18.47
2022-08-25T02:12:46.287Z,18.44
2022-08-25T02:15:56.452Z,18.44
2022-08-25T02:24:00.084Z,18.36
2022-08-25T02:27:04.459Z,18.32
2022-08-25T02:30:11.722Z,18.32
2022-08-25T02:33:15.440Z,18.26
2022-08-25T02:36:19.844Z,18.22
2022-08-25T02:39:23.633Z,18.22
2022-08-25T02:42:27.820Z,18.18
2022-08-25T02:45:33.225Z,18.15
2022-08-25T02:48:37.605Z,18.10
2022-08-25T02:51:41.290Z,18.05
2022-08-25T02:54:44.962Z,18.03
2022-08-25T02:57:49.054Z,18.00
2022-08-25T03:00:55.930Z,17.97
2022-08-25T03:04:00.933Z,17.94
2022-08-25T03:07:05.229Z,17.93
2022-08-25T03:10:13.557Z,17.92
2022-08-25T03:13:18.047Z,17.88
2022-08-25T03:16:23.625Z,17.84
2022-08-25T03:19:31.575Z,17.81
2022-08-25T03:22:35.302Z,17.77
2022-08-25T03:26:00.688Z,17.71
2022-08-25T03:29:06.016Z,17.66
2022-08-25T03:32:11.618Z,17.64
2022-08-25T03:35:15.726Z,17.59
2022-08-25T03:38:19.423Z,17.57
2022-08-25T03:41:28.987Z,17.55
2022-08-25T03:44:33.644Z,17.53
2022-08-25T03:47:39.500Z,17.52
2022-08-25T03:50:51.613Z,17.48
2022-08-25T03:53:56.404Z,17.43
2022-08-25T03:57:00.072Z,17.40
2022-08-25T04:00:04.863Z,17.35
2022-08-25T04:03:09.830Z,17.28
2022-08-25T04:06:13.876Z,17.27
2022-08-25T04:09:17.519Z,17.20
2022-08-25T04:12:21.083Z,17.16
2022-08-25T04:15:28.097Z,17.15
2022-08-25T04:18:35.241Z,17.13
2022-08-25T04:21:40.664Z,17.10
2022-08-25T04:24:44.328Z,17.07
2022-08-25T04:27:48.443Z,17.04
2022-08-25T04:30:52.308Z,17.04
2022-08-25T04:33:57.445Z,17.01
2022-08-25T04:37:03.344Z,16.99
2022-08-25T04:40:08.638Z,16.98
2022-08-25T04:43:12.635Z,16.96
2022-08-25T04:46:20.790Z,16.98
2022-08-25T04:49:25.966Z,16.98
2022-08-25T04:52:29.640Z,16.98
2022-08-25T04:55:33.352Z,17.01
2022-08-25T04:58:38.402Z,17.02
2022-08-25T05:01:43.790Z,17.04
2022-08-25T05:04:48.939Z,17.07
2022-08-25T05:07:52.585Z,17.11
2022-08-25T05:10:57.056Z,17.15
2022-08-25T05:14:03.290Z,17.19
2022-08-25T05:17:08.015Z,17.26
2022-08-25T05:20:13.462Z,17.35
2022-08-25T05:23:17.190Z,17.39
2022-08-25T05:26:23.276Z,17.49
2022-08-25T05:29:27.093Z,17.56
2022-08-25T05:32:30.727Z,17.69
2022-08-25T05:35:35.931Z,17.75
2022-08-25T05:38:41.033Z,17.88
2022-08-25T05:41:45.313Z,17.98
2022-08-25T05:44:48.877Z,18.09
2022-08-25T05:47:52.715Z,18.24
2022-08-25T05:51:00.491Z,18.45
2022-08-25T05:54:04.796Z,18.71
2022-08-25T05:57:09.301Z,19.13
2022-08-25T06:00:14.353Z,19.37
2022-08-25T06:03:17.630Z,19.54
2022-08-25T06:06:24.654Z,19.80
2022-08-25T06:09:28.547Z,19.94
2022-08-25T06:12:36.096Z,20.13
2022-08-25T06:15:39.689Z,20.25
2022-08-25T06:18:43.327Z,20.29
2022-08-25T06:21:48.285Z,20.38
2022-08-25T06:24:51.945Z,20.37
2022-08-25T06:27:56.503Z,20.47
2022-08-25T06:31:01.366Z,20.59
2022-08-25T06:34:06.091Z,20.76
2022-08-25T06:37:11.152Z,20.77
2022-08-25T06:40:16.657Z,20.91
2022-08-25T06:43:20.671Z,20.96
2022-08-25T06:46:35.570Z,20.84
2022-08-25T06:49:42.210Z,21.02
2022-08-25T06:52:47.172Z,21.11
2022-08-25T06:56:01.291Z,21.40
2022-08-25T06:59:10.342Z,21.58
2022-08-25T07:02:14.085Z,21.70
2022-08-25T07:05:33.687Z,21.60
2022-08-25T07:08:39.277Z,21.87
2022-08-25T07:11:44.359Z,22.08
2022-08-25T07:15:03.617Z,22.14
2022-08-25T07:18:13.180Z,22.28
2022-08-25T07:21:21.710Z,22.52
2022-08-25T07:24:29.394Z,22.79
2022-08-25T07:27:33.164Z,22.70
2022-08-25T07:30:36.742Z,22.87
2022-08-25T07:34:01.594Z,22.98
2022-08-25T07:37:05.867Z,23.19
2022-08-25T07:40:15.444Z,23.33
2022-08-25T07:43:20.306Z,23.23
2022-08-25T07:46:24.031Z,23.41
2022-08-25T07:49:35.932Z,23.66
2022-08-25T07:52:43.552Z,23.69
2022-08-25T07:55:48.788Z,23.79
2022-08-25T07:58:52.631Z,24.07
2022-08-25T08:01:56.294Z,24.37
2022-08-25T08:05:01.139Z,24.48
2022-08-25T08:08:05.746Z,24.60
2022-08-25T08:11:18.397Z,24.85
2022-08-25T08:14:22.335Z,24.79
2022-08-25T08:17:26.414Z,24.81
2022-08-25T08:20:32.454Z,24.82
2022-08-25T08:23:47.324Z,24.87
2022-08-25T08:26:58.770Z,24.83
2022-08-25T08:30:03.190Z,24.94
2022-08-25T08:33:11.723Z,25.05
2022-08-25T08:36:16.764Z,25.32
2022-08-25T08:39:20.474Z,25.72
2022-08-25T08:42:48.963Z,25.76
2022-08-25T08:45:54.695Z,26.01
2022-08-25T08:49:05.688Z,26.14
2022-08-25T08:52:14.858Z,26.05
2022-08-25T08:55:30.496Z,25.99
2022-08-25T08:58:44.553Z,26.15
2022-08-25T09:01:56.502Z,26.57
2022-08-25T09:05:07.070Z,26.52
2022-08-25T09:08:15.030Z,26.84
2022-08-25T09:11:36.667Z,27.18
2022-08-25T09:15:12.878Z,27.35
2022-08-25T09:18:28.064Z,27.55
2022-08-25T09:21:45.498Z,27.70
2022-08-25T09:25:08.338Z,27.47
2022-08-25T09:28:22.731Z,27.70
2022-08-25T09:31:33.092Z,27.16
2022-08-25T09:34:37.249Z,26.98
2022-08-25T09:37:40.984Z,26.97
2022-08-25T09:40:48.567Z,26.88
2022-08-25T09:43:55.620Z,26.96
2022-08-25T09:47:05.490Z,26.83
2022-08-25T09:50:19.133Z,26.81
2022-08-25T09:53:24.586Z,26.91
2022-08-25T09:56:32.495Z,26.94
2022-08-25T09:59:38.230Z,26.83
2022-08-25T10:02:44.674Z,27.08
2022-08-25T10:06:06.636Z,26.93
2022-08-25T10:09:24.171Z,26.90
2022-08-25T10:12:42.489Z,26.70
2022-08-25T10:15:48.593Z,27.10
2022-08-25T10:19:09.200Z,26.79
2022-08-25T10:22:24.916Z,26.79
2022-08-25T10:25:32.311Z,26.84
2022-08-25T10:28:48.272Z,26.95
2022-08-25T10:31:58.919Z,26.94
2022-08-25T10:35:17.111Z,27.00
2022-08-25T10:38:39.242Z,27.17
2022-08-25T10:42:02.436Z,27.24
2022-08-25T10:45:38.558Z,27.04
2022-08-25T10:49:00.372Z,27.27
2022-08-25T10:52:16.532Z,27.18
2022-08-25T10:55:30.684Z,27.00
2022-08-25T10:59:07.490Z,27.27
2022-08-25T11:03:05.177Z,27.50
2022-08-25T11:06:19.691Z,27.43
2022-08-25T11:09:32.192Z,27.88
2022-08-25T11:12:46.263Z,28.08
2022-08-25T11:16:18.780Z,28.06
2022-08-25T11:19:31.097Z,28.24
2022-08-25T11:22:47.071Z,28.02
2022-08-25T11:25:55.532Z,27.87
2022-08-25T11:29:11.397Z,27.72
2022-08-25T11:32:19.744Z,27.63
2022-08-25T11:35:34.085Z,27.76
2022-08-25T11:39:00.845Z,27.68
2022-08-25T11:42:24.755Z,28.00
2022-08-25T11:46:02.161Z,27.75
2022-08-25T11:49:35.711Z,27.64
2022-08-25T11:52:56.367Z,27.63
2022-08-25T11:56:05.619Z,27.97
2022-08-25T11:59:10.934Z,28.12
2022-08-25T12:02:34.966Z,28.30
2022-08-25T12:06:19.436Z,28.08
2022-08-25T12:09:25.308Z,28.19
2022-08-25T12:12:38.390Z,27.85
2022-08-25T12:16:02.439Z,27.98
2022-08-25T12:19:31.642Z,27.92
2022-08-25T12:22:58.396Z,27.76
2022-08-25T12:26:11.112Z,27.50
2022-08-25T12:29:28.902Z,27.26
2022-08-25T12:33:05.772Z,27.39
2022-08-25T12:36:12.732Z,27.69
2022-08-25T12:39:24.766Z,27.70
2022-08-25T12:42:36.444Z,27.90
2022-08-25T12:45:47.825Z,28.05
2022-08-25T12:49:03.747Z,28.11
2022-08-25T12:52:17.131Z,28.29
2022-08-25T12:55:23.867Z,28.31
2022-08-25T12:58:58.835Z,28.32
2022-08-25T13:02:54.228Z,28.39
2022-08-25T13:06:38.947Z,28.37
2022-08-25T13:10:22.170Z,28.40
2022-08-25T13:13:47.091Z,28.31
2022-08-25T13:16:55.797Z,28.23
2022-08-25T13:20:21.764Z,28.09
2022-08-25T13:23:31.904Z,28.38
2022-08-25T13:26:48.035Z,28.56
2022-08-25T13:29:55.988Z,28.49
2022-08-25T13:33:01.002Z,28.52
2022-08-25T13:36:36.678Z,28.82
2022-08-25T13:39:56.453Z,28.78
2022-08-25T13:43:11.740Z,28.73
2022-08-25T13:46:21.575Z,28.51
2022-08-25T13:49:27.901Z,28.51
2022-08-25T13:52:34.791Z,28.55
2022-08-25T13:55:52.246Z,28.63
2022-08-25T13:58:58.578Z,28.31
2022-08-25T14:02:02.490Z,28.11
2022-08-25T14:05:07.650Z,28.29
2022-08-25T14:08:34.462Z,28.65
2022-08-25T14:11:48.035Z,28.52
2022-08-25T14:15:01.867Z,28.02
2022-08-25T14:18:13.907Z,27.88
2022-08-25T14:21:22.043Z,28.12
2022-08-25T14:24:27.032Z,28.18
2022-08-25T14:27:35.971Z,28.64
2022-08-25T14:30:49.463Z,28.49
2022-08-25T14:34:00.814Z,28.51
2022-08-25T14:37:13.710Z,28.72
2022-08-25T14:40:21.410Z,28.36
2022-08-25T14:43:32.051Z,28.10
2022-08-25T14:46:42.900Z,28.26
2022-08-25T14:49:48.047Z,28.27
2022-08-25T14:52:52.360Z,28.30
2022-08-25T14:55:58.743Z,28.58
2022-08-25T14:59:05.262Z,29.02
2022-08-25T15:02:09.801Z,28.81
2022-08-25T15:05:19.186Z,28.66
2022-08-25T15:08:40.940Z,28.77
2022-08-25T15:11:50.760Z,28.45
2022-08-25T15:14:56.353Z,28.44
2022-08-25T15:18:04.882Z,28.41
2022-08-25T15:21:09.870Z,28.31
2022-08-25T15:24:17.446Z,28.56
2022-08-25T15:27:23.297Z,28.66
2022-08-25T15:30:30.997Z,28.41
2022-08-25T15:33:34.944Z,28.15
2022-08-25T15:36:39.738Z,28.11
2022-08-25T15:39:47.196Z,28.15
2022-08-25T15:42:50.941Z,27.84
2022-08-25T15:45:55.972Z,27.82
2022-08-25T15:48:59.940Z,27.83
2022-08-25T15:52:04.789Z,27.80
2022-08-25T15:55:11.234Z,27.82
2022-08-25T15:58:14.896Z,27.63
2022-08-25T16:01:24.783Z,27.81
2022-08-25T16:04:31.183Z,27.90
2022-08-25T16:07:35.020Z,27.96
2022-08-25T16:10:42.772Z,27.93
2022-08-25T16:13:47.711Z,27.87
2022-08-25T16:16:53.278Z,27.81
2022-08-25T16:20:02.323Z,27.82
2022-08-25T16:23:06.215Z,27.75
2022-08-25T16:26:12.959Z,27.72
2022-08-25T16:29:17.286Z,27.58
2022-08-25T16:32:22.251Z,27.43
2022-08-25T16:35:26.222Z,27.45
2022-08-25T16:38:29.926Z,27.49
2022-08-25T16:41:35.784Z,27.52
2022-08-25T16:44:40.127Z,27.48
2022-08-25T16:47:46.298Z,27.55
2022-08-25T16:50:49.839Z,27.55
2022-08-25T16:54:11.037Z,27.49
2022-08-25T16:57:15.185Z,27.45
2022-08-25T17:00:25.315Z,27.43
2022-08-25T17:03:34.135Z,27.33
2022-08-25T17:06:51.711Z,27.29
2022-08-25T17:09:58.087Z,27.16
2022-08-25T17:13:01.691Z,27.05
2022-08-25T17:16:06.510Z,27.05
2022-08-25T17:19:15.173Z,26.99
2022-08-25T17:22:18.810Z,26.96
2022-08-25T17:25:23.287Z,26.93
2022-08-25T17:28:31.488Z,26.87
2022-08-25T17:31:39.827Z,26.79
2022-08-25T17:34:45.231Z,26.79
2022-08-25T17:37:49.980Z,26.68
2022-08-25T17:40:55.263Z,26.61
2022-08-25T17:44:00.172Z,26.56
2022-08-25T17:47:03.818Z,26.47
2022-08-25T17:50:11.210Z,26.41
2022-08-25T17:53:17.374Z,26.30
2022-08-25T17:56:27.399Z,26.22
2022-08-25T17:59:32.436Z,26.17
2022-08-25T18:02:36.338Z,26.08
2022-08-25T18:05:45.138Z,25.97
2022-08-25T18:08:52.209Z,25.92
2022-08-25T18:11:58.476Z,25.84
2022-08-25T18:15:02.573Z,25.76
2022-08-25T18:18:07.035Z,25.67
2022-08-25T18:21:16.534Z,25.62
2022-08-25T18:24:20.146Z,25.54
2022-08-25T18:27:23.756Z,25.44
2022-08-25T18:30:29.778Z,25.37
2022-08-25T18:33:33.839Z,25.27
2022-08-25T18:36:40.662Z,25.20
2022-08-25T18:40:02.688Z,25.14
2022-08-25T18:43:11.910Z,25.10
2022-08-25T18:46:16.357Z,25.03
2022-08-25T18:49:20.521Z,24.98
2022-08-25T18:52:25.623Z,24.93
2022-08-25T18:55:33.554Z,24.85
2022-08-25T18:58:37.851Z,24.76
2022-08-25T19:01:43.468Z,24.70
2022-08-25T19:04:52.009Z,24.63
2022-08-25T19:07:57.045Z,24.53
2022-08-25T19:11:01.027Z,24.41
2022-08-25T19:14:05.119Z,24.33
2022-08-25T19:17:16.627Z,24.22
2022-08-25T19:20:21.673Z,24.13
2022-08-25T19:23:28.516Z,24.02
2022-08-25T19:26:34.513Z,23.92
2022-08-25T19:29:38.171Z,23.86
2022-08-25T19:32:44.746Z,23.80
2022-08-25T19:35:51.833Z,23.74
2022-08-25T19:39:00.586Z,23.66
2022-08-25T19:42:04.522Z,23.60
2022-08-25T19:45:11.939Z,23.54
2022-08-25T19:48:16.398Z,23.49
2022-08-25T19:51:21.772Z,23.43
2022-08-25T19:54:33.489Z,23.38
2022-08-25T19:57:42.653Z,23.31
2022-08-25T20:00:48.328Z,23.25
2022-08-25T20:03:55.343Z,23.24
2022-08-25T20:07:01.040Z,23.21
2022-08-25T20:10:14.074Z,23.17
2022-08-25T20:13:18.554Z,23.11
2022-08-25T20:16:23.645Z,23.10
2022-08-25T20:19:27.482Z,23.11
2022-08-25T20:22:34.554Z,23.03
2022-08-25T20:25:38.559Z,23.01
2022-08-25T20:28:43.746Z,22.95
2022-08-25T20:31:47.670Z,22.91
2022-08-25T20:34:55.671Z,22.88
2022-08-25T20:38:01.085Z,22.83
2022-08-25T20:41:10.743Z,22.81
2022-08-25T20:44:15.210Z,22.74
2022-08-25T20:47:21.076Z,22.71
2022-08-25T20:50:24.959Z,22.67
2022-08-25T20:53:29.527Z,22.62
2022-08-25T20:56:35.263Z,22.58
2022-08-25T20:59:39.067Z,22.53
2022-08-25T21:02:42.814Z,22.48
2022-08-25T21:05:46.446Z,22.45
2022-08-25T21:08:49.999Z,22.42
2022-08-25T21:12:25.461Z,22.37
2022-08-25T21:15:31.546Z,22.34
2022-08-25T21:18:36.412Z,22.30
2022-08-25T21:21:41.105Z,22.25
2022-08-25T21:24:47.501Z,22.22
2022-08-25T21:27:53.758Z,22.19
2022-08-25T21:30:57.394Z,22.15
2022-08-25T21:34:02.343Z,22.10
2022-08-25T21:37:07.606Z,22.05
2022-08-25T21:43:18.534Z,21.97
2022-08-25T21:46:26.248Z,21.95
2022-08-25T21:49:31.575Z,21.90
2022-08-25T21:52:42.300Z,21.87
2022-08-25T21:55:46.182Z,21.84
2022-08-25T21:58:51.206Z,21.79
2022-08-25T22:01:58.435Z,21.75
2022-08-25T22:05:02.070Z,21.70
2022-08-25T22:08:06.016Z,21.70
2022-08-25T22:11:11.458Z,21.70
2022-08-25T22:14:16.727Z,21.69
2022-08-25T22:17:21.090Z,21.68
2022-08-25T22:20:28.914Z,21.65
2022-08-25T22:23:33.707Z,21.63
2022-08-25T22:26:49.209Z,21.61
2022-08-25T22:29:54.551Z,21.61
2022-08-25T22:32:59.531Z,21.63
2022-08-25T22:36:03.574Z,21.64
2022-08-25T22:39:09.247Z,21.64
2022-08-25T22:42:13.087Z,21.66
2022-08-25T22:45:18.897Z,21.64
2022-08-25T22:48:23.142Z,21.67
2022-08-25T22:51:31.640Z,21.65
2022-08-25T22:54:35.291Z,21.65
2022-08-25T22:57:39.809Z,21.63
2022-08-25T23:00:44.766Z,21.58
2022-08-25T23:03:50.444Z,21.59
2022-08-25T23:06:54.253Z,21.55
2022-08-25T23:10:02.916Z,21.53
2022-08-25T23:13:07.235Z,21.51
2022-08-25T23:16:13.804Z,21.45
2022-08-25T23:19:18.816Z,21.45
2022-08-25T23:22:22.735Z,21.42
2022-08-25T23:25:27.527Z,21.42
2022-08-25T23:28:31.731Z,21.41
2022-08-25T23:31:36.861Z,21.39
2022-08-25T23:34:41.688Z,21.34
2022-08-25T23:37:46.379Z,21.35
2022-08-25T23:40:51.299Z,21.31
2022-08-25T23:43:55.737Z,21.30
2022-08-25T23:47:00.763Z,21.24
2022-08-25T23:50:04.779Z,21.22
2022-08-25T23:53:09.371Z,21.17
2022-08-25T23:56:13.026Z,21.13
2022-08-25T23:59:17.636Z,21.14
